sensor_id;sensor_type;location;lat;lon;timestamp;P1;durP1;ratioP1;P2;durP2;ratioP2
14554;SDS011;7364;50.870;4.722;2023-06-19T00:01:26;4.20;;;3.80;;
14554;SDS011;7364;50.870;4.722;2023-06-19T00:03:54;6.07;;;4.27;;
14554;SDS011;7364;50.870;4.722;2023-06-19T00:06:21;5.67;;;4.10;;
14554;SDS011;7364;50.870;4.722;2023-06-19T00:08:48;6.60;;;4.53;;
14554;SDS011;7364;50.870;4.722;2023-06-19T00:11:15;5.27;;;4.77;;
14554;SDS011;7364;50.870;4.722;2023-06-19T00:13:44;5.67;;;5.00;;
14554;SDS011;7364;50.870;4.722;2023-06-19T00:16:11;6.20;;;4.40;;
14554;SDS011;7364;50.870;4.722;2023-06-19T00:18:39;7.67;;;4.27;;
14554;SDS011;7364;50.870;4.722;2023-06-19T00:21:06;7.03;;;4.20;;
14554;SDS011;7364;50.870;4.722;2023-06-19T00:23:34;6.77;;;4.83;;
14554;SDS011;7364;50.870;4.722;2023-06-19T00:26:01;6.50;;;4.00;;
14554;SDS011;7364;50.870;4.722;2023-06-19T00:28:30;6.13;;;4.30;;
14554;SDS011;7364;50.870;4.722;2023-06-19T00:30:59;4.90;;;3.67;;
14554;SDS011;7364;50.870;4.722;2023-06-19T00:33:26;6.53;;;4.20;;
14554;SDS011;7364;50.870;4.722;2023-06-19T00:35:54;7.60;;;4.60;;
14554;SDS011;7364;50.870;4.722;2023-06-19T00:38:21;5.40;;;3.77;;
14554;SDS011;7364;50.870;4.722;2023-06-19T00:40:49;6.20;;;4.20;;
14554;SDS011;7364;50.870;4.722;2023-06-19T00:43:16;5.93;;;3.87;;
14554;SDS011;7364;50.870;4.722;2023-06-19T00:45:43;5.60;;;4.07;;
14554;SDS011;7364;50.870;4.722;2023-06-19T00:48:12;4.83;;;3.87;;
14554;SDS011;7364;50.870;4.722;2023-06-19T00:50:39;6.10;;;4.37;;
14554;SDS011;7364;50.870;4.722;2023-06-19T00:53:07;7.23;;;3.57;;
14554;SDS011;7364;50.870;4.722;2023-06-19T00:55:34;6.37;;;4.10;;
14554;SDS011;7364;50.870;4.722;2023-06-19T00:58:02;6.67;;;4.17;;
14554;SDS011;7364;50.870;4.722;2023-06-19T01:00:30;5.03;;;4.13;;
14554;SDS011;7364;50.870;4.722;2023-06-19T01:02:57;6.33;;;4.23;;
14554;SDS011;7364;50.870;4.722;2023-06-19T01:05:26;6.03;;;3.87;;
14554;SDS011;7364;50.870;4.722;2023-06-19T01:07:56;5.93;;;3.90;;
14554;SDS011;7364;50.870;4.722;2023-06-19T01:10:27;5.50;;;4.40;;
14554;SDS011;7364;50.870;4.722;2023-06-19T01:12:58;6.77;;;4.23;;
14554;SDS011;7364;50.870;4.722;2023-06-19T01:15:30;5.43;;;3.70;;
14554;SDS011;7364;50.870;4.722;2023-06-19T01:17:57;7.93;;;4.27;;
14554;SDS011;7364;50.870;4.722;2023-06-19T01:20:28;5.23;;;3.60;;
14554;SDS011;7364;50.870;4.722;2023-06-19T01:23:00;4.37;;;3.70;;
14554;SDS011;7364;50.870;4.722;2023-06-19T01:25:33;4.27;;;3.87;;
14554;SDS011;7364;50.870;4.722;2023-06-19T01:28:00;6.80;;;4.13;;
14554;SDS011;7364;50.870;4.722;2023-06-19T01:30:29;7.23;;;4.27;;
14554;SDS011;7364;50.870;4.722;2023-06-19T01:32:58;7.20;;;4.40;;
14554;SDS011;7364;50.870;4.722;2023-06-19T01:35:32;6.07;;;4.03;;
14554;SDS011;7364;50.870;4.722;2023-06-19T01:38:03;5.20;;;3.27;;
14554;SDS011;7364;50.870;4.722;2023-06-19T01:40:31;5.17;;;3.60;;
14554;SDS011;7364;50.870;4.722;2023-06-19T01:42:59;4.50;;;3.87;;
14554;SDS011;7364;50.870;4.722;2023-06-19T01:45:27;6.23;;;3.97;;
14554;SDS011;7364;50.870;4.722;2023-06-19T01:47:55;8.30;;;3.60;;
14554;SDS011;7364;50.870;4.722;2023-06-19T01:50:23;5.73;;;3.90;;
14554;SDS011;7364;50.870;4.722;2023-06-19T01:52:51;5.50;;;4.20;;
14554;SDS011;7364;50.870;4.722;2023-06-19T01:55:20;8.93;;;4.57;;
14554;SDS011;7364;50.870;4.722;2023-06-19T01:57:47;5.70;;;4.20;;
14554;SDS011;7364;50.870;4.722;2023-06-19T02:00:15;6.23;;;3.80;;
14554;SDS011;7364;50.870;4.722;2023-06-19T02:02:42;4.17;;;3.67;;
14554;SDS011;7364;50.870;4.722;2023-06-19T02:05:10;4.20;;;3.57;;
14554;SDS011;7364;50.870;4.722;2023-06-19T02:07:38;5.97;;;4.00;;
14554;SDS011;7364;50.870;4.722;2023-06-19T02:10:06;6.43;;;3.93;;
14554;SDS011;7364;50.870;4.722;2023-06-19T02:12:35;4.60;;;3.60;;
14554;SDS011;7364;50.870;4.722;2023-06-19T02:15:03;7.67;;;4.40;;
14554;SDS011;7364;50.870;4.722;2023-06-19T02:17:31;6.53;;;4.13;;
14554;SDS011;7364;50.870;4.722;2023-06-19T02:19:58;7.03;;;3.43;;
14554;SDS011;7364;50.870;4.722;2023-06-19T02:22:25;4.93;;;3.57;;
14554;SDS011;7364;50.870;4.722;2023-06-19T02:24:53;5.57;;;4.00;;
14554;SDS011;7364;50.870;4.722;2023-06-19T02:27:20;5.63;;;4.20;;
14554;SDS011;7364;50.870;4.722;2023-06-19T02:29:48;6.43;;;4.10;;
14554;SDS011;7364;50.870;4.722;2023-06-19T02:32:16;5.70;;;3.87;;
14554;SDS011;7364;50.870;4.722;2023-06-19T02:34:44;5.40;;;3.67;;
14554;SDS011;7364;50.870;4.722;2023-06-19T02:37:11;5.80;;;4.47;;
14554;SDS011;7364;50.870;4.722;2023-06-19T02:39:39;4.43;;;3.63;;
14554;SDS011;7364;50.870;4.722;2023-06-19T02:42:07;4.87;;;3.40;;
14554;SDS011;7364;50.870;4.722;2023-06-19T02:44:34;5.57;;;3.97;;
14554;SDS011;7364;50.870;4.722;2023-06-19T02:47:03;5.17;;;4.20;;
14554;SDS011;7364;50.870;4.722;2023-06-19T02:49:31;5.57;;;4.23;;
14554;SDS011;7364;50.870;4.722;2023-06-19T02:51:58;5.60;;;4.30;;
14554;SDS011;7364;50.870;4.722;2023-06-19T02:54:25;7.57;;;4.00;;
14554;SDS011;7364;50.870;4.722;2023-06-19T02:56:53;7.37;;;3.80;;
14554;SDS011;7364;50.870;4.722;2023-06-19T02:59:20;5.17;;;3.57;;
14554;SDS011;7364;50.870;4.722;2023-06-19T03:01:47;6.57;;;4.03;;
14554;SDS011;7364;50.870;4.722;2023-06-19T03:04:16;8.20;;;4.40;;
14554;SDS011;7364;50.870;4.722;2023-06-19T03:06:44;5.57;;;4.50;;
14554;SDS011;7364;50.870;4.722;2023-06-19T03:09:11;8.83;;;4.67;;
14554;SDS011;7364;50.870;4.722;2023-06-19T03:11:38;9.27;;;5.30;;
14554;SDS011;7364;50.870;4.722;2023-06-19T03:14:06;6.60;;;5.63;;
14554;SDS011;7364;50.870;4.722;2023-06-19T03:16:34;7.57;;;5.63;;
14554;SDS011;7364;50.870;4.722;2023-06-19T03:19:01;6.73;;;5.37;;
14554;SDS011;7364;50.870;4.722;2023-06-19T03:21:30;6.57;;;5.40;;
14554;SDS011;7364;50.870;4.722;2023-06-19T03:23:57;6.60;;;5.27;;
14554;SDS011;7364;50.870;4.722;2023-06-19T03:26:24;8.00;;;6.30;;
14554;SDS011;7364;50.870;4.722;2023-06-19T03:28:52;6.70;;;5.43;;
14554;SDS011;7364;50.870;4.722;2023-06-19T03:31:19;7.60;;;5.93;;
14554;SDS011;7364;50.870;4.722;2023-06-19T03:33:46;8.43;;;5.80;;
14554;SDS011;7364;50.870;4.722;2023-06-19T03:36:13;6.57;;;5.47;;
14554;SDS011;7364;50.870;4.722;2023-06-19T03:38:42;9.03;;;6.77;;
14554;SDS011;7364;50.870;4.722;2023-06-19T03:41:09;8.40;;;6.00;;
14554;SDS011;7364;50.870;4.722;2023-06-19T03:43:37;6.73;;;6.03;;
14554;SDS011;7364;50.870;4.722;2023-06-19T03:46:04;7.53;;;6.33;;
14554;SDS011;7364;50.870;4.722;2023-06-19T03:48:32;9.10;;;5.83;;
14554;SDS011;7364;50.870;4.722;2023-06-19T03:50:59;6.73;;;5.87;;
14554;SDS011;7364;50.870;4.722;2023-06-19T03:53:26;8.47;;;6.07;;
14554;SDS011;7364;50.870;4.722;2023-06-19T03:55:55;9.17;;;6.67;;
14554;SDS011;7364;50.870;4.722;2023-06-19T03:58:22;11.57;;;7.00;;
14554;SDS011;7364;50.870;4.722;2023-06-19T04:00:50;9.20;;;6.10;;
14554;SDS011;7364;50.870;4.722;2023-06-19T04:03:17;6.23;;;5.63;;
14554;SDS011;7364;50.870;4.722;2023-06-19T04:05:45;7.27;;;5.90;;
14554;SDS011;7364;50.870;4.722;2023-06-19T04:08:12;7.03;;;6.30;;
14554;SDS011;7364;50.870;4.722;2023-06-19T04:10:39;6.77;;;5.73;;
14554;SDS011;7364;50.870;4.722;2023-06-19T04:13:08;7.33;;;6.17;;
14554;SDS011;7364;50.870;4.722;2023-06-19T04:15:35;6.87;;;6.17;;
14554;SDS011;7364;50.870;4.722;2023-06-19T04:18:02;7.53;;;6.30;;
14554;SDS011;7364;50.870;4.722;2023-06-19T04:20:30;8.33;;;7.17;;
14554;SDS011;7364;50.870;4.722;2023-06-19T04:22:58;8.60;;;7.33;;
14554;SDS011;7364;50.870;4.722;2023-06-19T04:25:26;11.03;;;7.97;;
14554;SDS011;7364;50.870;4.722;2023-06-19T04:27:53;9.67;;;7.63;;
14554;SDS011;7364;50.870;4.722;2023-06-19T04:30:22;11.40;;;10.20;;
14554;SDS011;7364;50.870;4.722;2023-06-19T04:32:49;12.17;;;10.07;;
14554;SDS011;7364;50.870;4.722;2023-06-19T04:35:18;14.73;;;10.00;;
14554;SDS011;7364;50.870;4.722;2023-06-19T04:37:45;12.07;;;9.80;;
14554;SDS011;7364;50.870;4.722;2023-06-19T04:40:14;9.67;;;8.33;;
14554;SDS011;7364;50.870;4.722;2023-06-19T04:42:41;11.70;;;9.33;;
14554;SDS011;7364;50.870;4.722;2023-06-19T04:45:09;10.80;;;8.97;;
14554;SDS011;7364;50.870;4.722;2023-06-19T04:47:38;9.60;;;8.60;;
14554;SDS011;7364;50.870;4.722;2023-06-19T04:50:06;11.50;;;7.17;;
14554;SDS011;7364;50.870;4.722;2023-06-19T04:52:34;9.00;;;7.43;;
14554;SDS011;7364;50.870;4.722;2023-06-19T04:55:03;8.80;;;7.00;;
14554;SDS011;7364;50.870;4.722;2023-06-19T04:57:32;13.90;;;8.80;;
14554;SDS011;7364;50.870;4.722;2023-06-19T04:59:59;9.13;;;8.07;;
14554;SDS011;7364;50.870;4.722;2023-06-19T05:02:26;9.70;;;8.37;;
14554;SDS011;7364;50.870;4.722;2023-06-19T05:04:55;9.03;;;7.53;;
14554;SDS011;7364;50.870;4.722;2023-06-19T05:07:23;9.97;;;7.87;;
14554;SDS011;7364;50.870;4.722;2023-06-19T05:09:50;8.67;;;7.50;;
14554;SDS011;7364;50.870;4.722;2023-06-19T05:12:17;8.63;;;7.70;;
14554;SDS011;7364;50.870;4.722;2023-06-19T05:14:44;9.80;;;6.80;;
14554;SDS011;7364;50.870;4.722;2023-06-19T05:17:11;8.87;;;7.73;;
14554;SDS011;7364;50.870;4.722;2023-06-19T05:19:39;7.90;;;7.13;;
14554;SDS011;7364;50.870;4.722;2023-06-19T05:22:07;8.73;;;7.17;;
14554;SDS011;7364;50.870;4.722;2023-06-19T05:24:36;8.93;;;7.20;;
14554;SDS011;7364;50.870;4.722;2023-06-19T05:27:04;8.37;;;6.80;;
14554;SDS011;7364;50.870;4.722;2023-06-19T05:29:32;10.23;;;6.80;;
14554;SDS011;7364;50.870;4.722;2023-06-19T05:31:59;8.23;;;7.43;;
14554;SDS011;7364;50.870;4.722;2023-06-19T05:34:26;8.07;;;6.53;;
14554;SDS011;7364;50.870;4.722;2023-06-19T05:36:54;10.10;;;7.60;;
14554;SDS011;7364;50.870;4.722;2023-06-19T05:39:23;8.40;;;7.23;;
14554;SDS011;7364;50.870;4.722;2023-06-19T05:41:50;9.70;;;7.63;;
14554;SDS011;7364;50.870;4.722;2023-06-19T05:44:18;8.83;;;7.53;;
14554;SDS011;7364;50.870;4.722;2023-06-19T05:46:45;8.57;;;7.77;;
14554;SDS011;7364;50.870;4.722;2023-06-19T05:49:12;8.97;;;7.77;;
14554;SDS011;7364;50.870;4.722;2023-06-19T05:51:39;12.63;;;8.10;;
14554;SDS011;7364;50.870;4.722;2023-06-19T05:54:06;10.47;;;8.90;;
14554;SDS011;7364;50.870;4.722;2023-06-19T05:56:36;10.20;;;7.60;;
14554;SDS011;7364;50.870;4.722;2023-06-19T05:59:03;10.00;;;7.90;;
14554;SDS011;7364;50.870;4.722;2023-06-19T06:01:30;9.50;;;8.50;;
14554;SDS011;7364;50.870;4.722;2023-06-19T06:03:58;8.73;;;7.83;;
14554;SDS011;7364;50.870;4.722;2023-06-19T06:06:26;9.40;;;7.77;;
14554;SDS011;7364;50.870;4.722;2023-06-19T06:08:54;9.03;;;7.40;;
14554;SDS011;7364;50.870;4.722;2023-06-19T06:11:21;7.90;;;7.10;;
14554;SDS011;7364;50.870;4.722;2023-06-19T06:13:50;8.07;;;7.27;;
14554;SDS011;7364;50.870;4.722;2023-06-19T06:16:18;8.90;;;7.03;;
14554;SDS011;7364;50.870;4.722;2023-06-19T06:18:45;7.27;;;6.57;;
14554;SDS011;7364;50.870;4.722;2023-06-19T06:21:12;9.13;;;7.53;;
14554;SDS011;7364;50.870;4.722;2023-06-19T06:23:40;8.47;;;6.53;;
14554;SDS011;7364;50.870;4.722;2023-06-19T06:26:10;9.77;;;6.70;;
14554;SDS011;7364;50.870;4.722;2023-06-19T06:28:37;7.10;;;6.40;;
14554;SDS011;7364;50.870;4.722;2023-06-19T06:31:06;8.77;;;6.53;;
14554;SDS011;7364;50.870;4.722;2023-06-19T06:33:33;7.40;;;6.70;;
14554;SDS011;7364;50.870;4.722;2023-06-19T06:36:01;7.80;;;6.83;;
14554;SDS011;7364;50.870;4.722;2023-06-19T06:38:28;8.83;;;7.17;;
14554;SDS011;7364;50.870;4.722;2023-06-19T06:40:55;10.23;;;7.27;;
14554;SDS011;7364;50.870;4.722;2023-06-19T06:43:23;8.77;;;7.17;;
14554;SDS011;7364;50.870;4.722;2023-06-19T06:45:50;8.43;;;7.53;;
14554;SDS011;7364;50.870;4.722;2023-06-19T06:48:19;7.80;;;7.03;;
14554;SDS011;7364;50.870;4.722;2023-06-19T06:50:47;8.93;;;7.30;;
14554;SDS011;7364;50.870;4.722;2023-06-19T06:53:14;8.27;;;7.23;;
14554;SDS011;7364;50.870;4.722;2023-06-19T06:55:41;8.20;;;7.13;;
14554;SDS011;7364;50.870;4.722;2023-06-19T06:58:08;8.67;;;7.50;;
14554;SDS011;7364;50.870;4.722;2023-06-19T07:00:37;10.83;;;7.90;;
14554;SDS011;7364;50.870;4.722;2023-06-19T07:03:07;9.53;;;8.53;;
14554;SDS011;7364;50.870;4.722;2023-06-19T07:05:35;12.80;;;9.53;;
14554;SDS011;7364;50.870;4.722;2023-06-19T07:08:03;10.23;;;8.30;;
14554;SDS011;7364;50.870;4.722;2023-06-19T07:10:30;10.57;;;8.43;;
14554;SDS011;7364;50.870;4.722;2023-06-19T07:12:58;9.73;;;8.83;;
14554;SDS011;7364;50.870;4.722;2023-06-19T07:15:25;10.00;;;8.90;;
14554;SDS011;7364;50.870;4.722;2023-06-19T07:17:52;9.43;;;8.47;;
14554;SDS011;7364;50.870;4.722;2023-06-19T07:20:19;12.30;;;9.70;;
14554;SDS011;7364;50.870;4.722;2023-06-19T07:22:50;9.83;;;8.83;;
14554;SDS011;7364;50.870;4.722;2023-06-19T07:25:17;11.27;;;9.27;;
14554;SDS011;7364;50.870;4.722;2023-06-19T07:27:45;10.57;;;9.30;;
14554;SDS011;7364;50.870;4.722;2023-06-19T07:30:12;13.43;;;10.13;;
14554;SDS011;7364;50.870;4.722;2023-06-19T07:32:40;12.03;;;9.20;;
14554;SDS011;7364;50.870;4.722;2023-06-19T07:35:07;12.20;;;9.80;;
14554;SDS011;7364;50.870;4.722;2023-06-19T07:37:36;10.80;;;8.67;;
14554;SDS011;7364;50.870;4.722;2023-06-19T07:40:05;11.17;;;9.13;;
14554;SDS011;7364;50.870;4.722;2023-06-19T07:42:33;10.00;;;8.03;;
14554;SDS011;7364;50.870;4.722;2023-06-19T07:45:00;11.27;;;8.90;;
14554;SDS011;7364;50.870;4.722;2023-06-19T07:47:28;9.63;;;8.63;;
14554;SDS011;7364;50.870;4.722;2023-06-19T07:49:55;10.33;;;8.07;;
14554;SDS011;7364;50.870;4.722;2023-06-19T07:52:23;10.97;;;8.70;;
14554;SDS011;7364;50.870;4.722;2023-06-19T07:54:51;11.43;;;9.50;;
14554;SDS011;7364;50.870;4.722;2023-06-19T07:57:21;13.03;;;8.70;;
14554;SDS011;7364;50.870;4.722;2023-06-19T07:59:48;10.83;;;9.00;;
14554;SDS011;7364;50.870;4.722;2023-06-19T08:02:16;11.70;;;8.70;;
14554;SDS011;7364;50.870;4.722;2023-06-19T08:04:44;12.00;;;9.03;;
14554;SDS011;7364;50.870;4.722;2023-06-19T08:07:12;12.80;;;8.77;;
14554;SDS011;7364;50.870;4.722;2023-06-19T08:09:39;10.40;;;8.63;;
14554;SDS011;7364;50.870;4.722;2023-06-19T08:12:07;8.83;;;7.93;;
14554;SDS011;7364;50.870;4.722;2023-06-19T08:14:36;10.63;;;8.30;;
14554;SDS011;7364;50.870;4.722;2023-06-19T08:17:03;12.30;;;8.47;;
14554;SDS011;7364;50.870;4.722;2023-06-19T08:19:31;9.53;;;7.20;;
14554;SDS011;7364;50.870;4.722;2023-06-19T08:21:58;9.73;;;7.80;;
14554;SDS011;7364;50.870;4.722;2023-06-19T08:24:25;8.70;;;7.27;;
14554;SDS011;7364;50.870;4.722;2023-06-19T08:26:52;9.73;;;7.70;;
14554;SDS011;7364;50.870;4.722;2023-06-19T08:29:21;9.37;;;7.77;;
14554;SDS011;7364;50.870;4.722;2023-06-19T08:31:50;11.73;;;8.23;;
14554;SDS011;7364;50.870;4.722;2023-06-19T08:34:17;10.53;;;8.13;;
14554;SDS011;7364;50.870;4.722;2023-06-19T08:36:44;11.30;;;8.97;;
14554;SDS011;7364;50.870;4.722;2023-06-19T08:39:11;7.80;;;7.00;;
14554;SDS011;7364;50.870;4.722;2023-06-19T08:41:39;12.23;;;8.87;;
14554;SDS011;7364;50.870;4.722;2023-06-19T08:44:07;10.07;;;8.37;;
14554;SDS011;7364;50.870;4.722;2023-06-19T08:46:35;9.10;;;7.50;;
14554;SDS011;7364;50.870;4.722;2023-06-19T08:49:04;9.27;;;7.97;;
14554;SDS011;7364;50.870;4.722;2023-06-19T08:51:32;9.40;;;7.60;;
14554;SDS011;7364;50.870;4.722;2023-06-19T08:54:00;9.33;;;7.53;;
14554;SDS011;7364;50.870;4.722;2023-06-19T08:56:28;9.13;;;8.27;;
14554;SDS011;7364;50.870;4.722;2023-06-19T08:59:09;12.33;;;8.67;;
14554;SDS011;7364;50.870;4.722;2023-06-19T09:01:40;14.87;;;8.77;;
14554;SDS011;7364;50.870;4.722;2023-06-19T09:04:18;13.93;;;8.83;;
14554;SDS011;7364;50.870;4.722;2023-06-19T09:06:47;10.33;;;8.67;;
14554;SDS011;7364;50.870;4.722;2023-06-19T09:09:16;10.40;;;9.13;;
14554;SDS011;7364;50.870;4.722;2023-06-19T09:11:57;10.27;;;9.23;;
14554;SDS011;7364;50.870;4.722;2023-06-19T09:14:32;10.90;;;8.43;;
14554;SDS011;7364;50.870;4.722;2023-06-19T09:17:01;10.53;;;8.40;;
14554;SDS011;7364;50.870;4.722;2023-06-19T09:19:30;9.47;;;8.47;;
14554;SDS011;7364;50.870;4.722;2023-06-19T09:22:00;8.90;;;8.00;;
14554;SDS011;7364;50.870;4.722;2023-06-19T09:24:34;12.07;;;8.47;;
14554;SDS011;7364;50.870;4.722;2023-06-19T09:27:07;9.93;;;8.53;;
14554;SDS011;7364;50.870;4.722;2023-06-19T09:29:38;8.30;;;7.47;;
14554;SDS011;7364;50.870;4.722;2023-06-19T09:32:18;8.00;;;7.13;;
14554;SDS011;7364;50.870;4.722;2023-06-19T09:34:48;10.47;;;7.50;;
14554;SDS011;7364;50.870;4.722;2023-06-19T09:37:17;8.83;;;7.50;;
14554;SDS011;7364;50.870;4.722;2023-06-19T09:39:50;10.97;;;8.50;;
14554;SDS011;7364;50.870;4.722;2023-06-19T09:42:20;11.07;;;8.60;;
14554;SDS011;7364;50.870;4.722;2023-06-19T09:44:53;9.83;;;7.60;;
14554;SDS011;7364;50.870;4.722;2023-06-19T09:47:25;7.80;;;6.97;;
14554;SDS011;7364;50.870;4.722;2023-06-19T09:49:59;9.97;;;8.33;;
14554;SDS011;7364;50.870;4.722;2023-06-19T09:52:27;9.47;;;8.10;;
14554;SDS011;7364;50.870;4.722;2023-06-19T09:54:56;8.73;;;7.83;;
14554;SDS011;7364;50.870;4.722;2023-06-19T09:57:23;25.63;;;11.73;;
14554;SDS011;7364;50.870;4.722;2023-06-19T09:59:52;14.90;;;9.00;;
14554;SDS011;7364;50.870;4.722;2023-06-19T10:02:22;9.33;;;8.30;;
14554;SDS011;7364;50.870;4.722;2023-06-19T10:04:52;8.27;;;7.10;;
14554;SDS011;7364;50.870;4.722;2023-06-19T10:07:25;7.90;;;6.73;;
14554;SDS011;7364;50.870;4.722;2023-06-19T10:09:59;7.43;;;6.57;;
14554;SDS011;7364;50.870;4.722;2023-06-19T10:12:34;9.60;;;8.40;;
14554;SDS011;7364;50.870;4.722;2023-06-19T10:15:11;7.63;;;7.00;;
14554;SDS011;7364;50.870;4.722;2023-06-19T10:17:43;9.20;;;6.80;;
14554;SDS011;7364;50.870;4.722;2023-06-19T10:20:19;8.73;;;7.83;;
14554;SDS011;7364;50.870;4.722;2023-06-19T10:22:56;13.77;;;7.67;;
14554;SDS011;7364;50.870;4.722;2023-06-19T10:25:27;12.43;;;7.50;;
14554;SDS011;7364;50.870;4.722;2023-06-19T10:27:56;12.47;;;8.37;;
14554;SDS011;7364;50.870;4.722;2023-06-19T10:30:24;9.80;;;7.63;;
14554;SDS011;7364;50.870;4.722;2023-06-19T10:32:51;8.53;;;7.10;;
14554;SDS011;7364;50.870;4.722;2023-06-19T10:35:19;12.27;;;8.17;;
14554;SDS011;7364;50.870;4.722;2023-06-19T10:37:49;7.43;;;6.63;;
14554;SDS011;7364;50.870;4.722;2023-06-19T10:40:18;9.87;;;7.57;;
14554;SDS011;7364;50.870;4.722;2023-06-19T10:42:46;9.40;;;7.07;;
14554;SDS011;7364;50.870;4.722;2023-06-19T10:45:13;8.83;;;6.47;;
14554;SDS011;7364;50.870;4.722;2023-06-19T10:47:44;11.87;;;7.27;;
14554;SDS011;7364;50.870;4.722;2023-06-19T10:50:12;9.63;;;7.00;;
14554;SDS011;7364;50.870;4.722;2023-06-19T10:52:40;6.97;;;6.27;;
14554;SDS011;7364;50.870;4.722;2023-06-19T10:55:08;8.37;;;6.83;;
14554;SDS011;7364;50.870;4.722;2023-06-19T10:57:38;8.50;;;6.87;;
14554;SDS011;7364;50.870;4.722;2023-06-19T11:00:09;7.33;;;6.00;;
14554;SDS011;7364;50.870;4.722;2023-06-19T11:02:38;8.27;;;6.27;;
14554;SDS011;7364;50.870;4.722;2023-06-19T11:05:08;7.80;;;6.57;;
14554;SDS011;7364;50.870;4.722;2023-06-19T11:07:36;11.30;;;6.80;;
14554;SDS011;7364;50.870;4.722;2023-06-19T11:10:04;8.13;;;5.97;;
14554;SDS011;7364;50.870;4.722;2023-06-19T11:12:32;9.77;;;6.10;;
14554;SDS011;7364;50.870;4.722;2023-06-19T11:15:04;6.63;;;5.53;;
14554;SDS011;7364;50.870;4.722;2023-06-19T11:17:32;8.65;;;5.43;;
14554;SDS011;7364;50.870;4.722;2023-06-19T11:20:00;6.23;;;5.43;;
14554;SDS011;7364;50.870;4.722;2023-06-19T11:22:35;6.93;;;5.97;;
14554;SDS011;7364;50.870;4.722;2023-06-19T11:25:04;6.82;;;5.70;;
14554;SDS011;7364;50.870;4.722;2023-06-19T11:27:33;12.68;;;6.20;;
14554;SDS011;7364;50.870;4.722;2023-06-19T11:30:00;7.20;;;5.18;;
14554;SDS011;7364;50.870;4.722;2023-06-19T11:32:32;8.32;;;6.38;;
14554;SDS011;7364;50.870;4.722;2023-06-19T11:35:06;10.15;;;6.45;;
14554;SDS011;7364;50.870;4.722;2023-06-19T11:37:36;8.15;;;5.72;;
14554;SDS011;7364;50.870;4.722;2023-06-19T11:40:06;9.15;;;6.10;;
14554;SDS011;7364;50.870;4.722;2023-06-19T11:42:51;9.05;;;5.72;;
14554;SDS011;7364;50.870;4.722;2023-06-19T11:45:19;6.68;;;5.55;;
14554;SDS011;7364;50.870;4.722;2023-06-19T11:47:48;7.78;;;5.97;;
14554;SDS011;7364;50.870;4.722;2023-06-19T11:50:16;8.57;;;6.57;;
14554;SDS011;7364;50.870;4.722;2023-06-19T11:52:44;7.03;;;5.72;;
14554;SDS011;7364;50.870;4.722;2023-06-19T11:55:13;6.45;;;4.80;;
14554;SDS011;7364;50.870;4.722;2023-06-19T11:57:41;6.00;;;5.18;;
14554;SDS011;7364;50.870;4.722;2023-06-19T12:00:13;6.97;;;5.85;;
14554;SDS011;7364;50.870;4.722;2023-06-19T12:02:43;5.47;;;4.82;;
14554;SDS011;7364;50.870;4.722;2023-06-19T12:05:13;7.18;;;5.65;;
14554;SDS011;7364;50.870;4.722;2023-06-19T12:07:41;7.47;;;5.00;;
14554;SDS011;7364;50.870;4.722;2023-06-19T12:10:10;9.13;;;5.72;;
14554;SDS011;7364;50.870;4.722;2023-06-19T12:12:37;8.52;;;5.97;;
14554;SDS011;7364;50.870;4.722;2023-06-19T12:15:05;6.57;;;5.65;;
14554;SDS011;7364;50.870;4.722;2023-06-19T12:17:33;6.32;;;4.95;;
14554;SDS011;7364;50.870;4.722;2023-06-19T12:20:01;7.05;;;5.60;;
14554;SDS011;7364;50.870;4.722;2023-06-19T12:22:32;7.68;;;5.43;;
14554;SDS011;7364;50.870;4.722;2023-06-19T12:24:59;6.68;;;5.88;;
14554;SDS011;7364;50.870;4.722;2023-06-19T12:27:27;7.20;;;5.75;;
14554;SDS011;7364;50.870;4.722;2023-06-19T12:29:54;6.63;;;5.43;;
14554;SDS011;7364;50.870;4.722;2023-06-19T12:32:21;6.90;;;5.55;;
14554;SDS011;7364;50.870;4.722;2023-06-19T12:34:49;8.85;;;5.90;;
14554;SDS011;7364;50.870;4.722;2023-06-19T12:37:19;6.43;;;5.80;;
14554;SDS011;7364;50.870;4.722;2023-06-19T12:39:49;7.15;;;5.60;;
14554;SDS011;7364;50.870;4.722;2023-06-19T12:42:17;5.80;;;5.18;;
14554;SDS011;7364;50.870;4.722;2023-06-19T12:44:45;6.55;;;5.28;;
14554;SDS011;7364;50.870;4.722;2023-06-19T12:47:12;7.15;;;5.53;;
14554;SDS011;7364;50.870;4.722;2023-06-19T12:49:40;5.47;;;4.90;;
14554;SDS011;7364;50.870;4.722;2023-06-19T12:52:07;8.50;;;5.55;;
14554;SDS011;7364;50.870;4.722;2023-06-19T12:54:35;6.32;;;5.30;;
14554;SDS011;7364;50.870;4.722;2023-06-19T12:57:04;6.35;;;4.90;;
14554;SDS011;7364;50.870;4.722;2023-06-19T12:59:35;5.47;;;4.78;;
14554;SDS011;7364;50.870;4.722;2023-06-19T13:02:03;6.18;;;4.47;;
14554;SDS011;7364;50.870;4.722;2023-06-19T13:04:30;7.10;;;5.28;;
14554;SDS011;7364;50.870;4.722;2023-06-19T13:06:57;7.68;;;5.85;;
14554;SDS011;7364;50.870;4.722;2023-06-19T13:09:25;6.85;;;5.57;;
14554;SDS011;7364;50.870;4.722;2023-06-19T13:11:52;5.80;;;5.25;;
14554;SDS011;7364;50.870;4.722;2023-06-19T13:14:20;5.75;;;5.15;;
14554;SDS011;7364;50.870;4.722;2023-06-19T13:16:48;7.05;;;4.78;;
14554;SDS011;7364;50.870;4.722;2023-06-19T13:19:15;8.25;;;4.93;;
14554;SDS011;7364;50.870;4.722;2023-06-19T13:21:42;7.05;;;5.15;;
14554;SDS011;7364;50.870;4.722;2023-06-19T13:24:10;6.60;;;5.43;;
14554;SDS011;7364;50.870;4.722;2023-06-19T13:26:37;5.50;;;4.75;;
14554;SDS011;7364;50.870;4.722;2023-06-19T13:29:05;5.45;;;4.25;;
14554;SDS011;7364;50.870;4.722;2023-06-19T13:31:33;5.13;;;4.32;;
14554;SDS011;7364;50.870;4.722;2023-06-19T13:34:00;6.10;;;5.13;;
14554;SDS011;7364;50.870;4.722;2023-06-19T13:36:28;6.60;;;5.22;;
14554;SDS011;7364;50.870;4.722;2023-06-19T13:38:55;5.43;;;4.55;;
14554;SDS011;7364;50.870;4.722;2023-06-19T13:41:23;4.90;;;4.40;;
14554;SDS011;7364;50.870;4.722;2023-06-19T13:43:50;6.03;;;5.28;;
14554;SDS011;7364;50.870;4.722;2023-06-19T13:46:18;5.20;;;4.60;;
14554;SDS011;7364;50.870;4.722;2023-06-19T13:48:48;5.10;;;4.53;;
14554;SDS011;7364;50.870;4.722;2023-06-19T13:51:16;7.35;;;4.50;;
14554;SDS011;7364;50.870;4.722;2023-06-19T13:53:43;4.95;;;4.15;;
14554;SDS011;7364;50.870;4.722;2023-06-19T13:56:11;5.50;;;3.45;;
14554;SDS011;7364;50.870;4.722;2023-06-19T13:58:38;6.55;;;4.72;;
14554;SDS011;7364;50.870;4.722;2023-06-19T14:01:06;5.47;;;4.25;;
14554;SDS011;7364;50.870;4.722;2023-06-19T14:03:33;5.72;;;4.65;;
14554;SDS011;7364;50.870;4.722;2023-06-19T14:06:05;6.57;;;4.60;;
14554;SDS011;7364;50.870;4.722;2023-06-19T14:08:32;5.25;;;4.75;;
14554;SDS011;7364;50.870;4.722;2023-06-19T14:10:59;5.75;;;4.45;;
14554;SDS011;7364;50.870;4.722;2023-06-19T14:13:27;5.28;;;4.78;;
14554;SDS011;7364;50.870;4.722;2023-06-19T14:15:54;5.75;;;4.78;;
14554;SDS011;7364;50.870;4.722;2023-06-19T14:18:22;5.75;;;4.13;;
14554;SDS011;7364;50.870;4.722;2023-06-19T14:20:49;5.88;;;4.80;;
14554;SDS011;7364;50.870;4.722;2023-06-19T14:23:17;6.90;;;5.00;;
14554;SDS011;7364;50.870;4.722;2023-06-19T14:25:45;6.20;;;4.68;;
14554;SDS011;7364;50.870;4.722;2023-06-19T14:28:12;6.55;;;4.93;;
14554;SDS011;7364;50.870;4.722;2023-06-19T14:30:40;6.90;;;5.40;;
14554;SDS011;7364;50.870;4.722;2023-06-19T14:33:07;6.25;;;5.30;;
14554;SDS011;7364;50.870;4.722;2023-06-19T14:35:40;5.40;;;4.75;;
14554;SDS011;7364;50.870;4.722;2023-06-19T14:38:07;5.20;;;4.70;;
14554;SDS011;7364;50.870;4.722;2023-06-19T14:40:35;5.32;;;4.50;;
14554;SDS011;7364;50.870;4.722;2023-06-19T14:43:03;5.45;;;4.90;;
14554;SDS011;7364;50.870;4.722;2023-06-19T14:45:30;5.72;;;4.45;;
14554;SDS011;7364;50.870;4.722;2023-06-19T14:47:57;5.57;;;4.43;;
14554;SDS011;7364;50.870;4.722;2023-06-19T14:50:25;5.35;;;4.82;;
14554;SDS011;7364;50.870;4.722;2023-06-19T14:52:52;6.82;;;3.97;;
14554;SDS011;7364;50.870;4.722;2023-06-19T14:55:19;7.47;;;4.50;;
14554;SDS011;7364;50.870;4.722;2023-06-19T14:57:48;6.15;;;4.28;;
14554;SDS011;7364;50.870;4.722;2023-06-19T15:00:15;4.82;;;3.90;;
14554;SDS011;7364;50.870;4.722;2023-06-19T15:02:42;4.38;;;3.65;;
14554;SDS011;7364;50.870;4.722;2023-06-19T15:05:09;5.75;;;3.70;;